createdAt,value
2023-03-29T00:01:56.900Z,100500.69
2023-03-29T00:04:27.898Z,100514.03
2023-03-29T00:07:04.883Z,100508.22
2023-03-29T00:09:36.052Z,100507.84
2023-03-29T00:12:07.400Z,100511.50
2023-03-29T00:14:40.098Z,100518.69
2023-03-29T00:17:13.502Z,100521.38
2023-03-29T00:19:46.840Z,100521.69
2023-03-29T00:22:20.197Z,100515.53
2023-03-29T00:24:50.843Z,100512.41
2023-03-29T00:27:21.101Z,100519.84
2023-03-29T00:29:54.403Z,100516.53
2023-03-29T00:32:24.778Z,100519.31
2023-03-29T00:34:56.965Z,100510.03
2023-03-29T00:37:37.121Z,100512.75
2023-03-29T00:40:12.436Z,100515.56
2023-03-29T00:42:48.096Z,100490.03
2023-03-29T00:45:23.496Z,100518.34
2023-03-29T00:47:57.411Z,100508.19
2023-03-29T00:50:32.663Z,100502.97
2023-03-29T00:53:10.421Z,100508.19
2023-03-29T00:55:45.311Z,100511.59
2023-03-29T00:58:20.298Z,100510.75
2023-03-29T01:01:02.644Z,100515.28
2023-03-29T01:03:38.372Z,100513.50
2023-03-29T01:06:11.701Z,100524.09
2023-03-29T01:08:51.149Z,100526.81
2023-03-29T01:11:27.613Z,100527.03
2023-03-29T01:14:02.850Z,100520.22
2023-03-29T01:16:34.949Z,100515.28
2023-03-29T01:19:05.630Z,100525.75
2023-03-29T01:21:42.888Z,100520.75
2023-03-29T01:24:42.840Z,100516.44
2023-03-29T01:27:22.988Z,100520.84
2023-03-29T01:30:00.510Z,100523.44
2023-03-29T01:32:37.895Z,100517.44
2023-03-29T01:35:16.646Z,100519.19
2023-03-29T01:37:50.913Z,100520.28
2023-03-29T01:40:21.325Z,100524.78
2023-03-29T01:42:59.187Z,100522.25
2023-03-29T01:45:41.914Z,100513.75
2023-03-29T01:48:17.739Z,100498.59
2023-03-29T01:50:54.412Z,100515.00
2023-03-29T01:53:31.802Z,100520.31
2023-03-29T01:56:09.281Z,100510.88
2023-03-29T01:58:44.935Z,100519.66
2023-03-29T02:01:22.027Z,100519.91
2023-03-29T02:03:55.902Z,100523.50
2023-03-29T02:06:30.449Z,100523.56
2023-03-29T02:09:05.072Z,100533.22
2023-03-29T02:11:37.974Z,100535.88
2023-03-29T02:14:08.214Z,100530.00
2023-03-29T02:16:42.688Z,100528.34
2023-03-29T02:19:17.350Z,100532.69
2023-03-29T02:21:53.620Z,100535.28
2023-03-29T02:24:27.672Z,100538.75
2023-03-29T02:26:57.595Z,100532.69
2023-03-29T02:29:30.601Z,100531.88
2023-03-29T02:32:13.092Z,100532.75
2023-03-29T02:34:47.934Z,100543.25
2023-03-29T02:37:22.032Z,100538.94
2023-03-29T02:39:54.105Z,100532.91
2023-03-29T02:42:29.059Z,100539.06
2023-03-29T02:45:02.819Z,100544.28
2023-03-29T02:47:41.605Z,100542.63
2023-03-29T02:50:12.701Z,100546.13
2023-03-29T02:52:48.753Z,100542.72
2023-03-29T02:55:21.509Z,100545.38
2023-03-29T02:57:54.523Z,100548.84
2023-03-29T03:00:25.179Z,100549.75
2023-03-29T03:02:59.334Z,100557.56
2023-03-29T03:05:31.843Z,100566.28
2023-03-29T03:08:11.319Z,100563.81
2023-03-29T03:10:41.940Z,100563.88
2023-03-29T03:13:12.935Z,100564.84
2023-03-29T03:15:43.353Z,100559.69
2023-03-29T03:18:16.926Z,100563.09
2023-03-29T03:20:58.259Z,100569.94
2023-03-29T03:23:29.134Z,100560.47
2023-03-29T03:26:01.487Z,100545.22
2023-03-29T03:28:32.623Z,100570.78
2023-03-29T03:31:02.994Z,100575.97
2023-03-29T03:33:37.161Z,100590.63
2023-03-29T03:36:07.644Z,100587.22
2023-03-29T03:38:38.305Z,100591.72
2023-03-29T03:41:10.077Z,100598.69
2023-03-29T03:43:41.767Z,100591.13
2023-03-29T03:46:12.124Z,100591.13
2023-03-29T03:48:45.069Z,100597.94
2023-03-29T03:51:15.904Z,100600.63
2023-03-29T03:53:46.146Z,100600.56
2023-03-29T03:56:17.593Z,100608.44
2023-03-29T03:58:47.917Z,100603.28
2023-03-29T04:01:27.467Z,100602.50
2023-03-29T04:04:00.652Z,100609.53
2023-03-29T04:06:31.696Z,100606.09
2023-03-29T04:09:02.003Z,100613.88
2023-03-29T04:11:38.862Z,100608.69
2023-03-29T04:14:14.739Z,100612.16
2023-03-29T04:16:44.994Z,100614.66
2023-03-29T04:19:19.655Z,100619.13
2023-03-29T04:21:51.510Z,100618.25
2023-03-29T04:24:22.002Z,100618.34
2023-03-29T04:26:52.240Z,100626.03
2023-03-29T04:29:22.477Z,100616.66
2023-03-29T04:31:52.978Z,100622.66
2023-03-29T04:34:25.974Z,100626.03
2023-03-29T04:36:56.831Z,100623.44
2023-03-29T04:39:32.778Z,100628.88
2023-03-29T04:42:03.769Z,100626.28
2023-03-29T04:44:34.415Z,100632.22
2023-03-29T04:47:04.773Z,100622.72
2023-03-29T04:49:37.753Z,100631.34
2023-03-29T04:52:08.242Z,100620.13
2023-03-29T04:54:39.023Z,100623.63
2023-03-29T04:57:10.700Z,100624.41
2023-03-29T04:59:40.978Z,100624.28
2023-03-29T05:02:13.508Z,100625.91
2023-03-29T05:04:46.508Z,100624.06
2023-03-29T05:07:18.342Z,100625.72
2023-03-29T05:09:48.857Z,100635.31
2023-03-29T05:12:22.579Z,100626.91
2023-03-29T05:14:52.863Z,100629.66
2023-03-29T05:17:23.313Z,100630.28
2023-03-29T05:19:56.519Z,100617.13
2023-03-29T05:22:27.118Z,100622.91
2023-03-29T05:24:57.736Z,100639.84
2023-03-29T05:27:28.103Z,100641.25
2023-03-29T05:29:58.414Z,100632.31
2023-03-29T05:32:29.229Z,100637.06
2023-03-29T05:35:02.162Z,100629.69
2023-03-29T05:37:34.743Z,100628.78
2023-03-29T05:40:10.493Z,100635.22
2023-03-29T05:42:42.955Z,100629.25
2023-03-29T05:45:14.384Z,100628.16
2023-03-29T05:47:44.784Z,100629.72
2023-03-29T05:50:17.830Z,100621.66
2023-03-29T05:52:55.281Z,100617.53
2023-03-29T05:55:27.560Z,100619.00
2023-03-29T05:57:57.958Z,100625.56
2023-03-29T06:00:30.325Z,100631.31
2023-03-29T06:03:10.185Z,100627.00
2023-03-29T06:05:51.932Z,100587.94
2023-03-29T06:08:22.567Z,100618.16
2023-03-29T06:10:53.088Z,100625.53
2023-03-29T06:13:23.684Z,100624.34
2023-03-29T06:15:53.943Z,100623.31
2023-03-29T06:18:24.855Z,100622.19
2023-03-29T06:20:58.949Z,100622.03
2023-03-29T06:23:33.427Z,100634.50
2023-03-29T06:26:03.828Z,100635.06
2023-03-29T06:28:34.061Z,100637.75
2023-03-29T06:31:05.507Z,100646.53
2023-03-29T06:33:37.936Z,100644.72
2023-03-29T06:36:11.890Z,100648.97
2023-03-29T06:38:42.023Z,100651.97
2023-03-29T06:41:15.166Z,100654.66
2023-03-29T06:43:45.363Z,100653.56
2023-03-29T06:46:17.235Z,100650.53
2023-03-29T06:48:48.519Z,100666.78
2023-03-29T06:51:23.293Z,100664.41
2023-03-29T06:53:53.790Z,100666.09
2023-03-29T06:56:24.079Z,100662.97
2023-03-29T06:58:54.521Z,100668.69
2023-03-29T07:01:24.805Z,100680.41
2023-03-29T07:03:57.598Z,100682.38
2023-03-29T07:06:30.540Z,100675.47
2023-03-29T07:09:07.165Z,100670.41
2023-03-29T07:11:37.840Z,100680.53
2023-03-29T07:14:08.286Z,100675.69
2023-03-29T07:16:39.308Z,100678.19
2023-03-29T07:19:09.736Z,100680.31
2023-03-29T07:21:43.400Z,100682.03
2023-03-29T07:24:14.081Z,100675.38
2023-03-29T07:27:00.095Z,100680.34
2023-03-29T07:29:33.899Z,100690.81
2023-03-29T07:32:04.589Z,100683.88
2023-03-29T07:34:37.193Z,100683.31
2023-03-29T07:37:10.224Z,100687.84
2023-03-29T07:39:40.590Z,100679.44
2023-03-29T07:42:13.235Z,100686.75
2023-03-29T07:44:43.814Z,100693.94
2023-03-29T07:47:14.059Z,100693.16
2023-03-29T07:49:45.728Z,100686.47
2023-03-29T07:52:18.549Z,100687.03
2023-03-29T07:54:48.834Z,100680.59
2023-03-29T07:57:19.183Z,100684.88
2023-03-29T07:59:49.601Z,100680.69
2023-03-29T08:02:19.829Z,100686.28
2023-03-29T08:04:50.398Z,100678.94
2023-03-29T08:07:24.279Z,100679.44
2023-03-29T08:09:54.526Z,100678.03
2023-03-29T08:12:25.170Z,100677.44
2023-03-29T08:14:55.516Z,100671.41
2023-03-29T08:17:25.877Z,100676.03
2023-03-29T08:19:56.315Z,100675.94
2023-03-29T08:22:29.166Z,100684.06
2023-03-29T08:24:59.365Z,100679.88
2023-03-29T08:27:29.929Z,100666.06
2023-03-29T08:30:03.273Z,100679.81
2023-03-29T08:32:36.163Z,100674.50
2023-03-29T08:35:09.860Z,100675.25
2023-03-29T08:37:44.206Z,100676.03
2023-03-29T08:40:23.136Z,100667.56
2023-03-29T08:43:08.486Z,100674.28
2023-03-29T08:45:55.000Z,100668.81
2023-03-29T08:48:32.248Z,100667.25
2023-03-29T08:51:09.330Z,100668.09
2023-03-29T08:53:49.965Z,100675.00
2023-03-29T08:56:25.191Z,100672.47
2023-03-29T08:58:57.363Z,100680.25
2023-03-29T09:01:35.287Z,100671.06
2023-03-29T09:04:09.992Z,100672.34
2023-03-29T09:06:43.256Z,100669.38
2023-03-29T09:09:20.049Z,100667.84
2023-03-29T09:12:07.092Z,100674.84
2023-03-29T09:14:49.445Z,100664.06
2023-03-29T09:17:32.614Z,100661.50
2023-03-29T09:20:11.523Z,100659.50
2023-03-29T09:22:51.045Z,100657.88
2023-03-29T09:25:36.309Z,100659.97
2023-03-29T09:28:22.553Z,100657.84
2023-03-29T09:30:57.400Z,100657.91
2023-03-29T09:33:30.061Z,100647.63
2023-03-29T09:36:05.414Z,100659.19
2023-03-29T09:38:42.654Z,100654.38
2023-03-29T09:41:24.893Z,100645.53
2023-03-29T09:43:57.496Z,100656.38
2023-03-29T09:46:32.308Z,100644.06
2023-03-29T09:49:03.623Z,100649.69
2023-03-29T09:51:36.903Z,100637.97
2023-03-29T09:54:10.402Z,100641.47
2023-03-29T09:56:43.625Z,100639.47
2023-03-29T09:59:15.203Z,100635.94
2023-03-29T10:01:49.010Z,100637.38
2023-03-29T10:04:21.633Z,100631.31
2023-03-29T10:06:55.478Z,100632.03
2023-03-29T10:09:27.756Z,100630.94
2023-03-29T10:12:04.965Z,100624.78
2023-03-29T10:14:38.431Z,100618.09
2023-03-29T10:17:17.531Z,100625.59
2023-03-29T10:19:53.451Z,100616.69
2023-03-29T10:22:27.998Z,100613.50
2023-03-29T10:25:00.304Z,100609.00
2023-03-29T10:27:37.602Z,100618.59
2023-03-29T10:30:15.817Z,100603.78
2023-03-29T10:32:46.400Z,100604.41
2023-03-29T10:35:27.340Z,100599.09
2023-03-29T10:38:00.670Z,100603.72
2023-03-29T10:40:33.643Z,100604.78
2023-03-29T10:43:17.253Z,100600.53
2023-03-29T10:45:51.171Z,100603.19
2023-03-29T10:48:22.844Z,100589.00
2023-03-29T10:50:54.424Z,100591.06
2023-03-29T10:53:28.713Z,100586.50
2023-03-29T10:56:15.203Z,100585.84
2023-03-29T10:59:14.536Z,100583.53
2023-03-29T11:01:54.546Z,100580.00
2023-03-29T11:04:34.519Z,100575.94
2023-03-29T11:07:25.360Z,100566.59
2023-03-29T11:10:03.250Z,100570.03
2023-03-29T11:12:40.455Z,100566.50
2023-03-29T11:15:30.644Z,100571.69
2023-03-29T11:18:18.397Z,100564.47
2023-03-29T11:20:51.711Z,100554.78
2023-03-29T11:23:35.579Z,100558.28
2023-03-29T11:26:15.613Z,100557.81
2023-03-29T11:28:53.641Z,100558.53
2023-03-29T11:31:39.149Z,100546.13
2023-03-29T11:34:30.081Z,100545.53
2023-03-29T11:37:06.458Z,100535.41
2023-03-29T11:39:47.066Z,100529.44
2023-03-29T11:42:21.931Z,100525.88
2023-03-29T11:44:58.053Z,100529.28
2023-03-29T11:47:35.322Z,100527.59
2023-03-29T11:50:13.639Z,100520.34
2023-03-29T11:52:51.274Z,100514.94
2023-03-29T11:55:26.373Z,100506.44
2023-03-29T11:58:01.574Z,100504.78
2023-03-29T12:00:38.778Z,100492.97
2023-03-29T12:03:16.862Z,100496.66
2023-03-29T12:05:51.362Z,100498.56
2023-03-29T12:08:27.343Z,100492.13
2023-03-29T12:11:07.366Z,100490.66
2023-03-29T12:13:43.357Z,100485.47
2023-03-29T12:16:19.520Z,100489.59
2023-03-29T12:18:55.941Z,100488.16
2023-03-29T12:21:28.587Z,100483.50
2023-03-29T12:24:02.612Z,100474.47
2023-03-29T12:26:49.788Z,100468.22
2023-03-29T12:29:36.018Z,100467.66
2023-03-29T12:32:24.546Z,100462.22
2023-03-29T12:35:08.930Z,100462.34
2023-03-29T12:37:48.557Z,100461.50
2023-03-29T12:40:21.440Z,100451.88
2023-03-29T12:42:55.532Z,100452.47
2023-03-29T12:45:36.309Z,100464.97
2023-03-29T12:48:07.979Z,100446.41
2023-03-29T12:50:50.000Z,100450.28
2023-03-29T12:53:25.412Z,100448.00
2023-03-29T12:56:12.785Z,100444.97
2023-03-29T12:59:11.123Z,100437.44
2023-03-29T13:01:43.215Z,100435.28
2023-03-29T13:04:20.021Z,100436.47
2023-03-29T13:07:07.569Z,100433.13
2023-03-29T13:09:50.253Z,100436.44
2023-03-29T13:12:27.429Z,100444.88
2023-03-29T13:15:01.164Z,100432.59
2023-03-29T13:17:45.285Z,100428.97
2023-03-29T13:20:33.796Z,100431.16
2023-03-29T13:23:24.334Z,100428.25
2023-03-29T13:26:13.255Z,100422.25
2023-03-29T13:29:03.640Z,100427.16
2023-03-29T13:31:39.219Z,100421.69
2023-03-29T13:34:28.286Z,100424.16
2023-03-29T13:37:09.340Z,100412.00
2023-03-29T13:39:53.209Z,100422.06
2023-03-29T13:42:28.015Z,100411.81
2023-03-29T13:45:17.091Z,100410.19
2023-03-29T13:48:02.727Z,100409.06
2023-03-29T13:50:42.127Z,100420.97
2023-03-29T13:53:18.901Z,100410.75
2023-03-29T13:55:56.008Z,100386.78
2023-03-29T13:58:37.765Z,100418.81
2023-03-29T14:01:14.744Z,100405.41
2023-03-29T14:03:48.670Z,100391.59
2023-03-29T14:06:25.025Z,100401.97
2023-03-29T14:08:56.571Z,100401.91
2023-03-29T14:11:32.428Z,100395.59
2023-03-29T14:14:08.090Z,100395.47
2023-03-29T14:16:40.352Z,100395.63
2023-03-29T14:19:17.582Z,100394.78
2023-03-29T14:21:48.798Z,100385.88
2023-03-29T14:24:24.363Z,100407.16
2023-03-29T14:27:00.556Z,100393.31
2023-03-29T14:29:34.088Z,100389.22
2023-03-29T14:32:14.170Z,100396.34
2023-03-29T14:34:44.942Z,100392.75
2023-03-29T14:37:16.530Z,100387.69
2023-03-29T14:39:46.859Z,100382.06
2023-03-29T14:42:23.726Z,100372.38
2023-03-29T14:44:54.241Z,100375.25
2023-03-29T14:47:29.648Z,100368.19
2023-03-29T14:50:02.002Z,100376.25
2023-03-29T14:52:34.018Z,100366.28
2023-03-29T14:55:05.979Z,100361.38
2023-03-29T14:57:39.684Z,100359.53
2023-03-29T15:00:31.674Z,100350.19
2023-03-29T15:03:04.108Z,100355.84
2023-03-29T15:05:39.468Z,100360.28
2023-03-29T15:08:12.190Z,100359.09
2023-03-29T15:10:45.080Z,100359.44
2023-03-29T15:13:24.696Z,100353.69
2023-03-29T15:15:59.449Z,100362.56
2023-03-29T15:18:35.193Z,100352.22
2023-03-29T15:21:06.200Z,100358.22
2023-03-29T15:23:42.005Z,100361.00
2023-03-29T15:26:16.532Z,100359.53
2023-03-29T15:28:55.946Z,100361.97
2023-03-29T15:31:29.606Z,100361.94
2023-03-29T15:34:10.744Z,100364.59
2023-03-29T15:36:43.883Z,100362.16
2023-03-29T15:39:16.423Z,100363.97
2023-03-29T15:41:48.261Z,100358.91
2023-03-29T15:44:25.844Z,100351.69
2023-03-29T15:47:00.100Z,100350.63
2023-03-29T15:49:30.919Z,100349.66
2023-03-29T15:52:01.213Z,100351.06
2023-03-29T15:54:33.583Z,100350.34
2023-03-29T15:57:06.699Z,100347.47
2023-03-29T15:59:39.728Z,100342.59
2023-03-29T16:02:16.070Z,100348.72
2023-03-29T16:04:46.722Z,100355.50
2023-03-29T16:07:19.321Z,100352.13
2023-03-29T16:09:49.907Z,100360.00
2023-03-29T16:12:20.165Z,100347.59
2023-03-29T16:14:55.788Z,100354.63
2023-03-29T16:17:26.013Z,100347.34
2023-03-29T16:19:57.158Z,100354.34
2023-03-29T16:22:30.481Z,100354.56
2023-03-29T16:25:00.747Z,100362.66
2023-03-29T16:27:31.485Z,100351.59
2023-03-29T16:30:04.470Z,100360.66
2023-03-29T16:32:34.858Z,100354.31
2023-03-29T16:35:05.382Z,100342.72
2023-03-29T16:37:35.913Z,100357.22
2023-03-29T16:40:08.043Z,100364.34
2023-03-29T16:42:38.364Z,100366.75
2023-03-29T16:45:15.455Z,100355.09
2023-03-29T16:47:46.792Z,100357.94
2023-03-29T16:50:19.042Z,100366.06
2023-03-29T16:52:51.699Z,100364.25
2023-03-29T16:55:22.506Z,100361.72
2023-03-29T16:57:53.819Z,100356.97
2023-03-29T17:00:27.110Z,100359.75
2023-03-29T17:02:57.649Z,100360.66
2023-03-29T17:05:31.148Z,100359.56
2023-03-29T17:08:05.192Z,100359.63
2023-03-29T17:10:36.589Z,100355.31
2023-03-29T17:13:07.145Z,100354.22
2023-03-29T17:15:40.377Z,100360.03
2023-03-29T17:18:10.757Z,100360.84
2023-03-29T17:20:42.257Z,100358.28
2023-03-29T17:23:13.030Z,100363.28
2023-03-29T17:25:43.644Z,100369.19
2023-03-29T17:28:14.394Z,100364.50
2023-03-29T17:30:47.490Z,100370.56
2023-03-29T17:33:20.353Z,100376.56
2023-03-29T17:35:52.096Z,100367.53
2023-03-29T17:38:22.782Z,100373.31
2023-03-29T17:40:56.378Z,100376.50
2023-03-29T17:43:26.783Z,100380.22
2023-03-29T17:45:59.792Z,100378.13
2023-03-29T17:48:33.034Z,100380.53
2023-03-29T17:51:03.444Z,100377.50
2023-03-29T17:53:33.816Z,100388.16
2023-03-29T17:56:04.380Z,100393.97
2023-03-29T17:58:34.859Z,100379.28
2023-03-29T18:01:12.490Z,100392.22
2023-03-29T18:03:43.440Z,100392.75
2023-03-29T18:06:13.806Z,100390.69
2023-03-29T18:08:44.319Z,100403.44
2023-03-29T18:11:19.064Z,100401.31
2023-03-29T18:13:53.155Z,100404.16
2023-03-29T18:16:26.421Z,100412.41
2023-03-29T18:18:56.702Z,100412.06
2023-03-29T18:21:28.338Z,100416.38
2023-03-29T18:23:58.659Z,100422.69
2023-03-29T18:26:28.989Z,100420.16
2023-03-29T18:28:59.440Z,100431.56
2023-03-29T18:31:33.005Z,100431.56
2023-03-29T18:34:03.444Z,100429.16
2023-03-29T18:36:34.820Z,100429.09
2023-03-29T18:39:06.012Z,100428.25
2023-03-29T18:41:38.025Z,100429.09
2023-03-29T18:44:08.735Z,100430.78
2023-03-29T18:46:53.306Z,100426.88
2023-03-29T18:49:25.180Z,100436.59
2023-03-29T18:51:58.183Z,100441.03
2023-03-29T18:54:31.448Z,100451.59
2023-03-29T18:57:04.801Z,100446.56
2023-03-29T18:59:36.184Z,100443.88
2023-03-29T19:02:09.366Z,100447.13
2023-03-29T19:04:43.137Z,100442.81
2023-03-29T19:07:13.568Z,100451.72
2023-03-29T19:09:44.255Z,100446.88
2023-03-29T19:12:14.523Z,100448.50
2023-03-29T19:14:44.896Z,100446.09
2023-03-29T19:17:20.259Z,100433.44
2023-03-29T19:19:53.400Z,100442.63
2023-03-29T19:22:23.734Z,100439.44
2023-03-29T19:24:55.156Z,100446.25
2023-03-29T19:27:25.538Z,100441.28
2023-03-29T19:29:55.950Z,100447.66
2023-03-29T19:32:28.923Z,100440.91
2023-03-29T19:34:59.262Z,100450.75
2023-03-29T19:37:32.194Z,100445.66
2023-03-29T19:40:02.601Z,100433.69
2023-03-29T19:42:32.865Z,100436.22
2023-03-29T19:45:04.147Z,100438.84
2023-03-29T19:47:37.456Z,100445.84
2023-03-29T19:50:08.812Z,100444.16
2023-03-29T19:52:39.204Z,100447.75
2023-03-29T19:55:11.091Z,100441.97
2023-03-29T19:57:42.673Z,100440.44
2023-03-29T20:00:14.394Z,100438.75
2023-03-29T20:02:49.969Z,100441.56
2023-03-29T20:05:21.567Z,100436.59
2023-03-29T20:07:51.796Z,100445.38
2023-03-29T20:10:22.120Z,100438.50
2023-03-29T20:12:52.432Z,100446.44
2023-03-29T20:15:25.720Z,100448.19
2023-03-29T20:18:00.558Z,100450.94
2023-03-29T20:20:32.118Z,100447.63
2023-03-29T20:23:05.223Z,100453.16
2023-03-29T20:25:36.376Z,100446.56
2023-03-29T20:28:06.983Z,100450.22
2023-03-29T20:30:38.075Z,100452.13
2023-03-29T20:33:11.290Z,100440.13
2023-03-29T20:35:41.593Z,100441.19
2023-03-29T20:38:11.950Z,100450.03
2023-03-29T20:40:43.069Z,100439.09
2023-03-29T20:43:18.802Z,100441.00
2023-03-29T20:45:53.878Z,100447.28
2023-03-29T20:55:12.675Z,100436.63
2023-03-29T20:57:43.545Z,100436.03
2023-03-29T21:00:15.090Z,100438.84
2023-03-29T21:02:45.425Z,100440.81
2023-03-29T21:05:16.464Z,100431.34
2023-03-29T21:07:48.249Z,100429.00
2023-03-29T21:10:23.628Z,100435.00
2023-03-29T21:12:54.467Z,100431.06
2023-03-29T21:15:27.674Z,100422.47
2023-03-29T21:17:58.300Z,100437.34
2023-03-29T21:20:28.898Z,100436.69
2023-03-29T21:22:59.173Z,100429.97
2023-03-29T21:25:32.271Z,100429.13
2023-03-29T21:28:02.530Z,100430.19
2023-03-29T21:30:32.777Z,100430.47
2023-03-29T21:33:03.258Z,100434.00
2023-03-29T21:35:34.405Z,100429.88
2023-03-29T21:38:04.902Z,100427.41
2023-03-29T21:40:39.228Z,100423.22
2023-03-29T21:43:09.602Z,100414.69
2023-03-29T21:45:39.885Z,100422.50
2023-03-29T21:48:10.375Z,100419.22
2023-03-29T21:50:41.185Z,100421.09
2023-03-29T21:53:11.440Z,100426.38
2023-03-29T21:55:44.347Z,100427.31
2023-03-29T21:58:14.644Z,100417.97
2023-03-29T22:00:45.060Z,100412.16
2023-03-29T22:03:16.007Z,100425.13
2023-03-29T22:05:46.848Z,100423.44
2023-03-29T22:08:20.024Z,100431.56
2023-03-29T22:10:55.750Z,100438.59
2023-03-29T22:13:29.202Z,100437.09
2023-03-29T22:16:01.504Z,100435.44
2023-03-29T22:18:44.038Z,100442.28
2023-03-29T22:21:17.732Z,100437.44
2023-03-29T22:23:50.046Z,100432.97
2023-03-29T22:26:27.774Z,100435.81
2023-03-29T22:28:58.856Z,100438.31
2023-03-29T22:31:32.671Z,100435.88
2023-03-29T22:34:03.058Z,100442.91
2023-03-29T22:36:34.070Z,100435.09
2023-03-29T22:39:04.318Z,100437.84
2023-03-29T22:41:37.883Z,100436.22
2023-03-29T22:44:08.756Z,100425.84
2023-03-29T22:46:39.318Z,100434.66
2023-03-29T22:49:09.633Z,100428.59
2023-03-29T22:51:39.970Z,100432.88
2023-03-29T22:54:10.198Z,100433.78
2023-03-29T22:56:43.278Z,100428.66
2023-03-29T22:59:13.491Z,100429.56
2023-03-29T23:01:43.850Z,100424.53
2023-03-29T23:04:14.220Z,100418.72
2023-03-29T23:06:44.737Z,100429.13
2023-03-29T23:09:16.425Z,100433.69
2023-03-29T23:11:49.443Z,100435.56
2023-03-29T23:14:19.865Z,100433.09
2023-03-29T23:16:50.745Z,100430.50
2023-03-29T23:19:21.229Z,100435.81
2023-03-29T23:21:52.987Z,100435.09
2023-03-29T23:24:23.232Z,100429.16
2023-03-29T23:26:56.084Z,100430.91
2023-03-29T23:29:26.459Z,100433.56
2023-03-29T23:31:56.995Z,100440.53
2023-03-29T23:34:27.352Z,100438.81
2023-03-29T23:36:57.581Z,100435.47
2023-03-29T23:39:28.902Z,100437.28
2023-03-29T23:42:01.909Z,100433.88
2023-03-29T23:44:32.518Z,100433.22
2023-03-29T23:47:02.869Z,100434.00
2023-03-29T23:49:33.525Z,100440.19
2023-03-29T23:52:03.782Z,100434.13
2023-03-29T23:54:34.546Z,100443.81
2023-03-29T23:57:07.434Z,100437.75
2023-03-29T23:59:38.104Z,100436.78
